Time;durP1;ratioP1;P1;durP2;ratioP2;P2;SDS_P1;SDS_P2;PMS_P1;PMS_P2;Temp;Humidity;BMP_temperature;BMP_pressure;BME280_temperature;BME280_humidity;BME280_pressure;Samples;Min_cycle;Max_cycle;Signal;HPM_P1;HPM_P2
2023/08/24 00:01:27;;;;;;;4.37;3.90;;;;;;;;;;5106840;28;20533;-67
2023/08/24 00:03:54;;;;;;;5.97;4.18;;;;;;;;;;5108126;28;20878;-67
2023/08/24 00:06:21;;;;;;;5.00;3.72;;;;;;;;;;5105215;28;20443;-68
2023/08/24 00:08:48;;;;;;;4.40;3.80;;;;;;;;;;5108854;28;20487;-67
2023/08/24 00:11:15;;;;;;;6.55;3.80;;;;;;;;;;5106934;28;20428;-67
2023/08/24 00:13:46;;;;;;;4.40;3.90;;;;;;;;;;5106962;28;20914;-67
2023/08/24 00:16:13;;;;;;;5.68;4.10;;;;;;;;;;5108254;27;20428;-67
2023/08/24 00:18:42;;;;;;;5.35;3.97;;;;;;;;;;5107907;27;20432;-68
2023/08/24 00:21:09;;;;;;;5.93;4.38;;;;;;;;;;5106255;27;20896;-68
2023/08/24 00:23:36;;;;;;;4.43;3.80;;;;;;;;;;5108249;28;20483;-67
2023/08/24 00:26:03;;;;;;;5.72;4.32;;;;;;;;;;5107966;28;20993;-67
2023/08/24 00:28:31;;;;;;;5.70;4.20;;;;;;;;;;5111391;27;20418;-67
2023/08/24 00:30:58;;;;;;;5.50;4.00;;;;;;;;;;5107259;28;20910;-67
2023/08/24 00:33:25;;;;;;;4.72;4.10;;;;;;;;;;5109778;27;20447;-67
2023/08/24 00:35:53;;;;;;;6.03;4.20;;;;;;;;;;5106031;28;21214;-67
2023/08/24 00:38:20;;;;;;;4.40;3.60;;;;;;;;;;5111273;28;20431;-67
2023/08/24 00:40:47;;;;;;;7.00;4.30;;;;;;;;;;5105360;28;20428;-67
2023/08/24 00:43:14;;;;;;;4.50;4.00;;;;;;;;;;5119044;28;20882;-67
2023/08/24 00:45:42;;;;;;;4.97;4.07;;;;;;;;;;5107263;28;20447;-67
2023/08/24 00:48:09;;;;;;;5.90;4.22;;;;;;;;;;5106771;28;20435;-66
2023/08/24 00:50:36;;;;;;;6.07;4.40;;;;;;;;;;5122252;28;20562;-67
2023/08/24 00:53:05;;;;;;;5.28;4.20;;;;;;;;;;5106250;28;20424;-67
2023/08/24 00:55:32;;;;;;;6.10;4.27;;;;;;;;;;5107092;28;20909;-67
2023/08/24 00:58:00;;;;;;;5.63;4.00;;;;;;;;;;5106798;28;20424;-67
2023/08/24 01:00:27;;;;;;;5.00;3.95;;;;;;;;;;5101786;28;20435;-67
2023/08/24 01:02:54;;;;;;;5.17;4.20;;;;;;;;;;5106392;28;20428;-66
2023/08/24 01:05:22;;;;;;;5.95;4.03;;;;;;;;;;5103490;28;20428;-67
2023/08/24 01:07:49;;;;;;;4.63;4.05;;;;;;;;;;5109028;28;20900;-67
2023/08/24 01:10:17;;;;;;;6.03;4.30;;;;;;;;;;5109351;28;20428;-67
2023/08/24 01:12:51;;;;;;;7.32;4.25;;;;;;;;;;5110592;28;20427;-67
2023/08/24 01:15:20;;;;;;;7.45;5.05;;;;;;;;;;5107254;28;20432;-67
2023/08/24 01:17:49;;;;;;;4.78;4.10;;;;;;;;;;5107350;28;20507;-66
2023/08/24 01:20:16;;;;;;;5.47;4.40;;;;;;;;;;5109599;28;20477;-67
2023/08/24 01:22:48;;;;;;;4.80;4.30;;;;;;;;;;5113532;28;20431;-66
2023/08/24 01:25:18;;;;;;;5.63;4.60;;;;;;;;;;5112098;28;20427;-66
2023/08/24 01:27:47;;;;;;;5.03;4.07;;;;;;;;;;5106939;28;20428;-66
2023/08/24 01:30:14;;;;;;;6.18;3.70;;;;;;;;;;5105190;28;21003;-67
2023/08/24 01:32:42;;;;;;;5.47;4.20;;;;;;;;;;5113111;28;20437;-66
2023/08/24 01:35:11;;;;;;;5.63;4.28;;;;;;;;;;5106015;28;20710;-67
2023/08/24 01:37:38;;;;;;;7.32;4.88;;;;;;;;;;5110019;28;20450;-67
2023/08/24 01:40:11;;;;;;;5.40;4.25;;;;;;;;;;5111500;28;20426;-67
2023/08/24 01:42:43;;;;;;;5.50;4.38;;;;;;;;;;5106439;28;20485;-67
2023/08/24 01:45:12;;;;;;;4.47;4.07;;;;;;;;;;5114186;27;20418;-67
2023/08/24 01:47:41;;;;;;;5.53;4.57;;;;;;;;;;5109314;28;20424;-67
2023/08/24 01:50:08;;;;;;;5.00;4.07;;;;;;;;;;5110618;27;21004;-67
2023/08/24 01:52:36;;;;;;;5.07;4.40;;;;;;;;;;5109577;28;20427;-68
2023/08/24 01:55:03;;;;;;;6.47;4.25;;;;;;;;;;5109826;27;20432;-67
2023/08/24 01:57:30;;;;;;;5.43;4.63;;;;;;;;;;5115110;27;20609;-67
2023/08/24 01:59:57;;;;;;;4.95;4.25;;;;;;;;;;5108721;28;20455;-68
2023/08/24 02:02:25;;;;;;;5.65;4.32;;;;;;;;;;5106606;28;20459;-67
2023/08/24 02:04:53;;;;;;;5.97;4.03;;;;;;;;;;5109654;27;20936;-67
2023/08/24 02:07:20;;;;;;;4.93;3.85;;;;;;;;;;5111185;28;20435;-67
2023/08/24 02:09:47;;;;;;;5.03;4.13;;;;;;;;;;5109324;27;21398;-66
2023/08/24 02:12:14;;;;;;;5.78;4.50;;;;;;;;;;5107807;28;20427;-66
2023/08/24 02:14:41;;;;;;;5.03;4.53;;;;;;;;;;5113708;27;20425;-67
2023/08/24 02:17:08;;;;;;;6.68;4.60;;;;;;;;;;5108148;27;20439;-66
2023/08/24 02:19:37;;;;;;;5.53;4.40;;;;;;;;;;5107185;28;20436;-67
2023/08/24 02:22:04;;;;;;;6.53;4.90;;;;;;;;;;5110583;27;20431;-66
2023/08/24 02:24:31;;;;;;;5.03;4.40;;;;;;;;;;5108878;28;20420;-66
2023/08/24 02:26:58;;;;;;;5.30;4.80;;;;;;;;;;5107921;28;20506;-66
2023/08/24 02:29:25;;;;;;;5.78;4.80;;;;;;;;;;5117178;27;21182;-67
2023/08/24 02:31:52;;;;;;;5.70;4.60;;;;;;;;;;5108458;28;20914;-67
2023/08/24 02:34:20;;;;;;;5.43;4.70;;;;;;;;;;5119999;27;20804;-67
2023/08/24 02:36:48;;;;;;;5.90;4.40;;;;;;;;;;5115743;27;20420;-66
2023/08/24 02:39:16;;;;;;;6.30;4.70;;;;;;;;;;5109660;27;20802;-67
2023/08/24 02:41:43;;;;;;;4.88;4.38;;;;;;;;;;5108416;28;20440;-66
2023/08/24 02:44:10;;;;;;;5.75;4.45;;;;;;;;;;5109550;27;20420;-66
2023/08/24 02:46:37;;;;;;;5.65;4.70;;;;;;;;;;5110905;27;20428;-66
2023/08/24 02:49:04;;;;;;;5.00;4.30;;;;;;;;;;5112729;27;20428;-67
2023/08/24 02:51:32;;;;;;;6.60;4.32;;;;;;;;;;5106340;27;20943;-67
2023/08/24 02:54:00;;;;;;;5.20;4.50;;;;;;;;;;5108171;28;20987;-67
2023/08/24 02:56:27;;;;;;;5.22;4.10;;;;;;;;;;5110081;28;20936;-67
2023/08/24 02:58:54;;;;;;;5.53;4.90;;;;;;;;;;5111901;22;20445;-70
2023/08/24 03:01:21;;;;;;;4.68;4.20;;;;;;;;;;5086758;28;20429;-70
2023/08/24 03:03:49;;;;;;;5.00;4.50;;;;;;;;;;5092878;28;20426;-68
2023/08/24 03:06:16;;;;;;;5.87;4.40;;;;;;;;;;5098583;28;20402;-70
2023/08/24 03:08:43;;;;;;;6.38;4.60;;;;;;;;;;5104908;28;20424;-69
2023/08/24 03:11:12;;;;;;;4.32;3.92;;;;;;;;;;5105220;28;20424;-69
2023/08/24 03:13:39;;;;;;;6.07;4.70;;;;;;;;;;5107567;28;20428;-72
2023/08/24 03:16:07;;;;;;;5.18;4.68;;;;;;;;;;5111589;27;20435;-69
2023/08/24 03:18:34;;;;;;;4.75;4.20;;;;;;;;;;5104776;28;21048;-68
2023/08/24 03:21:02;;;;;;;4.80;4.30;;;;;;;;;;5109190;27;20514;-70
2023/08/24 03:23:29;;;;;;;5.15;4.65;;;;;;;;;;5109909;28;20408;-70
2023/08/24 03:25:57;;;;;;;4.97;4.40;;;;;;;;;;5108548;27;20427;-70
2023/08/24 03:28:26;;;;;;;4.85;4.45;;;;;;;;;;5109386;28;20465;-70
2023/08/24 03:30:55;;;;;;;6.03;4.47;;;;;;;;;;5103388;28;20439;-71
2023/08/24 03:33:22;;;;;;;4.85;4.25;;;;;;;;;;5109148;28;20674;-71
2023/08/24 03:35:50;;;;;;;5.20;4.28;;;;;;;;;;5105814;28;20428;-69
2023/08/24 03:38:17;;;;;;;5.95;4.40;;;;;;;;;;5107743;28;20407;-70
2023/08/24 03:40:44;;;;;;;4.50;4.10;;;;;;;;;;5109238;28;20424;-69
2023/08/24 03:43:11;;;;;;;5.57;4.50;;;;;;;;;;5108095;28;20428;-70
2023/08/24 03:45:39;;;;;;;4.50;4.10;;;;;;;;;;5117661;27;20424;-69
2023/08/24 03:48:07;;;;;;;5.00;4.50;;;;;;;;;;5131809;28;20423;-68
2023/08/24 03:50:34;;;;;;;5.35;4.45;;;;;;;;;;5125413;28;20430;-69
2023/08/24 03:53:01;;;;;;;5.13;4.30;;;;;;;;;;5127165;28;20451;-71
2023/08/24 03:55:28;;;;;;;5.07;4.53;;;;;;;;;;5113465;28;20435;-71
2023/08/24 03:57:55;;;;;;;5.70;4.60;;;;;;;;;;5106710;28;20437;-71
2023/08/24 04:00:22;;;;;;;8.80;4.47;;;;;;;;;;5103702;28;20440;-71
2023/08/24 04:02:50;;;;;;;4.72;4.22;;;;;;;;;;5107691;28;20447;-71
2023/08/24 04:05:17;;;;;;;5.50;4.33;;;;;;;;;;5107426;28;20423;-72
2023/08/24 04:07:45;;;;;;;5.40;4.40;;;;;;;;;;5104525;28;20400;-71
2023/08/24 04:10:12;;;;;;;5.22;4.20;;;;;;;;;;5105770;28;20437;-70
2023/08/24 04:12:39;;;;;;;5.93;4.35;;;;;;;;;;5102697;28;20435;-71
2023/08/24 04:15:07;;;;;;;5.03;4.40;;;;;;;;;;5104741;28;20431;-69
2023/08/24 04:17:34;;;;;;;6.60;4.70;;;;;;;;;;5107829;28;20420;-71
2023/08/24 04:20:06;;;;;;;7.50;4.45;;;;;;;;;;5106238;28;20408;-69
2023/08/24 04:22:33;;;;;;;5.30;4.60;;;;;;;;;;5103529;28;20427;-70
2023/08/24 04:25:00;;;;;;;5.90;4.50;;;;;;;;;;5108056;28;20420;-70
2023/08/24 04:27:28;;;;;;;6.97;4.30;;;;;;;;;;5107892;28;20834;-70
2023/08/24 04:29:55;;;;;;;6.25;4.82;;;;;;;;;;5108234;28;20424;-70
2023/08/24 04:32:23;;;;;;;5.05;4.53;;;;;;;;;;5107374;28;20428;-72
2023/08/24 04:34:50;;;;;;;5.97;4.80;;;;;;;;;;5107972;28;20435;-71
2023/08/24 04:37:19;;;;;;;5.20;4.70;;;;;;;;;;5108435;28;20427;-70
2023/08/24 04:39:46;;;;;;;5.45;4.95;;;;;;;;;;5107337;28;20424;-72
2023/08/24 04:42:13;;;;;;;5.50;5.00;;;;;;;;;;5106018;28;20428;-70
2023/08/24 04:44:40;;;;;;;5.40;4.90;;;;;;;;;;5112089;28;20886;-70
2023/08/24 04:47:07;;;;;;;7.47;5.40;;;;;;;;;;5110493;28;20953;-68
2023/08/24 04:49:35;;;;;;;6.10;5.50;;;;;;;;;;5111540;28;20428;-70
2023/08/24 04:52:02;;;;;;;8.20;5.83;;;;;;;;;;5119717;28;20414;-69
2023/08/24 04:54:30;;;;;;;6.28;5.78;;;;;;;;;;5107734;28;20471;-69
2023/08/24 04:56:57;;;;;;;8.00;7.13;;;;;;;;;;5107541;28;20528;-67
2023/08/24 04:59:24;;;;;;;9.90;7.97;;;;;;;;;;5110734;28;20419;-68
2023/08/24 05:01:51;;;;;;;10.43;8.73;;;;;;;;;;5108332;28;20428;-68
2023/08/24 05:04:19;;;;;;;8.00;7.20;;;;;;;;;;5104628;28;20428;-68
2023/08/24 05:06:46;;;;;;;10.57;8.27;;;;;;;;;;5102608;28;20426;-68
2023/08/24 05:09:13;;;;;;;11.20;8.18;;;;;;;;;;5104584;28;20914;-68
2023/08/24 05:11:41;;;;;;;9.53;8.33;;;;;;;;;;5103063;28;20428;-68
2023/08/24 05:14:08;;;;;;;9.18;8.05;;;;;;;;;;5106934;28;20420;-70
2023/08/24 05:16:35;;;;;;;12.05;8.45;;;;;;;;;;5103973;28;20422;-68
2023/08/24 05:19:03;;;;;;;7.97;6.90;;;;;;;;;;5105582;27;20424;-69
2023/08/24 05:21:30;;;;;;;7.63;6.93;;;;;;;;;;5110194;28;20419;-68
2023/08/24 05:23:57;;;;;;;7.80;7.10;;;;;;;;;;5094399;27;20447;-67
2023/08/24 05:26:24;;;;;;;8.38;7.47;;;;;;;;;;5101978;27;20420;-68
2023/08/24 05:28:54;;;;;;;8.60;7.70;;;;;;;;;;5101295;27;20428;-67
2023/08/24 05:31:21;;;;;;;9.68;8.20;;;;;;;;;;5109105;28;20783;-68
2023/08/24 05:33:48;;;;;;;9.35;8.23;;;;;;;;;;5110234;28;20870;-69
2023/08/24 05:36:15;;;;;;;8.73;7.63;;;;;;;;;;5110225;28;20420;-69
2023/08/24 05:38:46;;;;;;;8.95;8.00;;;;;;;;;;5112572;28;20404;-69
2023/08/24 05:41:13;;;;;;;9.15;7.97;;;;;;;;;;5109664;28;20454;-70
2023/08/24 05:43:40;;;;;;;8.02;7.22;;;;;;;;;;5110160;28;20431;-69
2023/08/24 05:46:09;;;;;;;8.43;7.53;;;;;;;;;;5110014;27;20431;-69
2023/08/24 05:48:36;;;;;;;9.50;7.45;;;;;;;;;;5101751;28;20416;-70
2023/08/24 05:51:03;;;;;;;9.10;7.22;;;;;;;;;;5110892;28;20771;-71
2023/08/24 05:53:30;;;;;;;9.10;7.50;;;;;;;;;;5110513;28;20962;-70
2023/08/24 05:56:00;;;;;;;7.87;7.07;;;;;;;;;;5106060;28;20424;-70
2023/08/24 05:58:27;;;;;;;7.53;6.53;;;;;;;;;;5102413;27;20424;-70
2023/08/24 06:00:57;;;;;;;7.80;7.00;;;;;;;;;;5107013;27;20423;-69
2023/08/24 06:03:25;;;;;;;7.70;7.00;;;;;;;;;;5104392;28;20803;-70
2023/08/24 06:05:53;;;;;;;8.20;7.40;;;;;;;;;;5106817;28;20428;-71
2023/08/24 06:08:20;;;;;;;8.18;7.13;;;;;;;;;;5109106;28;20481;-70
2023/08/24 06:10:47;;;;;;;8.40;7.60;;;;;;;;;;5114544;27;20427;-70
2023/08/24 06:13:14;;;;;;;8.40;7.60;;;;;;;;;;5103391;28;20428;-69
2023/08/24 06:15:41;;;;;;;8.10;7.40;;;;;;;;;;5108320;27;20421;-70
2023/08/24 06:18:08;;;;;;;7.65;7.03;;;;;;;;;;5108985;28;20549;-70
2023/08/24 06:20:36;;;;;;;8.25;6.75;;;;;;;;;;5112103;27;20431;-71
2023/08/24 06:23:04;;;;;;;8.80;7.20;;;;;;;;;;5111293;28;20417;-71
2023/08/24 06:25:32;;;;;;;7.78;6.28;;;;;;;;;;5108295;28;20428;-72
2023/08/24 06:27:59;;;;;;;7.45;6.75;;;;;;;;;;5108314;28;20416;-71
2023/08/24 06:30:26;;;;;;;8.40;7.60;;;;;;;;;;5102131;28;20902;-70
2023/08/24 06:32:53;;;;;;;8.57;6.95;;;;;;;;;;5111068;27;20453;-71
2023/08/24 06:35:21;;;;;;;8.85;7.60;;;;;;;;;;5108670;28;20431;-71
2023/08/24 06:37:49;;;;;;;8.50;7.60;;;;;;;;;;5106600;27;20926;-71
2023/08/24 06:40:17;;;;;;;7.70;7.00;;;;;;;;;;5110368;27;20798;-71
2023/08/24 06:42:44;;;;;;;7.40;6.70;;;;;;;;;;5114274;28;20828;-71
2023/08/24 06:45:11;;;;;;;7.15;6.50;;;;;;;;;;5112220;27;20519;-70
2023/08/24 06:47:38;;;;;;;6.78;6.18;;;;;;;;;;5109016;27;20487;-72
2023/08/24 06:50:06;;;;;;;6.97;6.30;;;;;;;;;;5112701;28;20404;-70
2023/08/24 06:52:33;;;;;;;7.00;6.30;;;;;;;;;;5110808;27;20435;-71
2023/08/24 06:55:02;;;;;;;7.10;6.50;;;;;;;;;;5115513;27;20424;-70
2023/08/24 06:57:29;;;;;;;6.43;5.80;;;;;;;;;;5106819;27;20428;-69
2023/08/24 06:59:56;;;;;;;9.23;6.10;;;;;;;;;;5107897;27;20428;-70
2023/08/24 07:02:23;;;;;;;6.82;6.18;;;;;;;;;;5106071;27;20435;-70
2023/08/24 07:04:50;;;;;;;8.13;5.97;;;;;;;;;;5108644;28;22155;-74
2023/08/24 07:07:17;;;;;;;6.30;5.70;;;;;;;;;;5110970;28;20447;-74
2023/08/24 07:09:44;;;;;;;6.13;5.40;;;;;;;;;;5109886;28;20424;-74
2023/08/24 07:12:13;;;;;;;5.80;5.20;;;;;;;;;;5109228;28;20427;-73
2023/08/24 07:14:40;;;;;;;5.40;4.75;;;;;;;;;;5108670;28;20431;-72
2023/08/24 07:17:07;;;;;;;6.63;4.90;;;;;;;;;;5108691;27;20695;-71
2023/08/24 07:19:34;;;;;;;5.25;4.60;;;;;;;;;;5109586;27;20434;-72
2023/08/24 07:22:01;;;;;;;4.80;4.40;;;;;;;;;;5109900;27;20435;-70
2023/08/24 07:24:29;;;;;;;5.47;4.32;;;;;;;;;;5117274;27;20408;-71
2023/08/24 07:26:57;;;;;;;5.00;4.50;;;;;;;;;;5110571;27;20444;-72
2023/08/24 07:29:25;;;;;;;4.45;4.05;;;;;;;;;;5111906;27;20515;-72
2023/08/24 07:31:52;;;;;;;5.50;3.90;;;;;;;;;;5103393;27;20435;-71
2023/08/24 07:34:21;;;;;;;5.50;3.80;;;;;;;;;;5102980;27;20437;-72
2023/08/24 07:36:49;;;;;;;6.10;4.38;;;;;;;;;;5105213;27;20442;-72
2023/08/24 07:39:16;;;;;;;6.50;4.00;;;;;;;;;;5110651;27;20446;-72
2023/08/24 07:41:43;;;;;;;3.50;3.20;;;;;;;;;;5108285;28;20424;-71
2023/08/24 07:44:10;;;;;;;4.38;3.97;;;;;;;;;;5109102;27;20409;-68
2023/08/24 07:46:40;;;;;;;5.20;3.60;;;;;;;;;;5106510;28;20431;-76
2023/08/24 07:49:07;;;;;;;3.85;3.45;;;;;;;;;;5109767;28;20408;-75
2023/08/24 07:51:34;;;;;;;4.53;3.78;;;;;;;;;;5107260;28;20653;-72
2023/08/24 07:54:01;;;;;;;4.07;3.65;;;;;;;;;;5107819;28;20495;-75
2023/08/24 07:56:28;;;;;;;4.47;3.40;;;;;;;;;;5107293;28;20427;-75
2023/08/24 07:58:55;;;;;;;3.78;3.47;;;;;;;;;;5109224;28;20411;-72
2023/08/24 08:01:22;;;;;;;3.75;3.45;;;;;;;;;;5106143;28;20432;-75
2023/08/24 08:03:51;;;;;;;4.03;3.40;;;;;;;;;;5107644;28;20420;-77
2023/08/24 08:06:18;;;;;;;4.45;3.45;;;;;;;;;;5103341;28;20420;-73
2023/08/24 08:08:46;;;;;;;4.38;3.67;;;;;;;;;;5109423;28;20411;-76
2023/08/24 08:11:13;;;;;;;3.20;2.90;;;;;;;;;;5104736;28;20971;-74
2023/08/24 08:13:40;;;;;;;4.93;3.60;;;;;;;;;;5110945;28;20411;-75
2023/08/24 08:16:08;;;;;;;5.00;3.63;;;;;;;;;;5110505;28;20428;-74
2023/08/24 08:18:36;;;;;;;4.28;3.50;;;;;;;;;;5109027;28;20423;-74
2023/08/24 08:21:09;;;;;;;3.70;3.30;;;;;;;;;;5108577;28;20426;-76
2023/08/24 08:23:36;;;;;;;3.50;3.20;;;;;;;;;;5108843;28;20400;-76
2023/08/24 08:26:03;;;;;;;3.90;3.50;;;;;;;;;;5107621;28;20798;-76
2023/08/24 08:28:33;;;;;;;4.15;3.75;;;;;;;;;;5108474;28;20840;-75
2023/08/24 08:31:00;;;;;;;4.50;3.60;;;;;;;;;;5107399;28;20428;-77
2023/08/24 08:33:27;;;;;;;4.57;3.88;;;;;;;;;;5108741;28;20416;-74
2023/08/24 08:35:54;;;;;;;3.83;3.20;;;;;;;;;;5107619;28;20611;-77
2023/08/24 08:38:25;;;;;;;5.23;3.67;;;;;;;;;;5107086;28;20437;-74
2023/08/24 08:40:53;;;;;;;3.60;3.30;;;;;;;;;;5106232;27;20431;-74
2023/08/24 08:43:20;;;;;;;3.90;3.28;;;;;;;;;;5108173;28;20417;-75
2023/08/24 08:45:47;;;;;;;4.75;3.72;;;;;;;;;;5107184;28;20508;-75
2023/08/24 08:48:14;;;;;;;4.00;3.50;;;;;;;;;;5108120;28;20446;-75
2023/08/24 08:50:41;;;;;;;3.55;3.25;;;;;;;;;;5114596;28;20428;-75
2023/08/24 08:53:09;;;;;;;3.70;3.40;;;;;;;;;;5113926;28;20435;-73
2023/08/24 08:55:37;;;;;;;4.35;3.42;;;;;;;;;;5110774;27;20425;-72
2023/08/24 08:58:04;;;;;;;4.85;3.20;;;;;;;;;;5126890;22;20433;-67
2023/08/24 09:00:32;;;;;;;5.40;3.00;;;;;;;;;;5086230;28;20949;-69
2023/08/24 09:02:59;;;;;;;4.13;3.13;;;;;;;;;;5086881;28;20796;-68
2023/08/24 09:05:27;;;;;;;3.80;2.80;;;;;;;;;;5089358;28;20433;-69
2023/08/24 09:07:54;;;;;;;3.30;3.00;;;;;;;;;;5089690;28;20431;-69
2023/08/24 09:10:22;;;;;;;4.57;2.80;;;;;;;;;;5087329;28;20429;-68
2023/08/24 09:12:50;;;;;;;2.97;2.40;;;;;;;;;;5089565;28;20429;-69
2023/08/24 09:15:25;;;;;;;3.90;2.70;;;;;;;;;;5086075;28;20425;-69
2023/08/24 09:17:52;;;;;;;4.13;2.57;;;;;;;;;;5091109;28;20429;-66
2023/08/24 09:20:19;;;;;;;5.80;3.00;;;;;;;;;;5089520;28;20430;-68
2023/08/24 09:22:46;;;;;;;2.75;2.40;;;;;;;;;;5095297;28;20424;-67
2023/08/24 09:25:13;;;;;;;2.90;2.20;;;;;;;;;;5085318;28;20441;-68
2023/08/24 09:27:41;;;;;;;3.25;2.58;;;;;;;;;;5084736;28;20433;-67
2023/08/24 09:30:11;;;;;;;3.22;2.40;;;;;;;;;;5084469;28;20457;-67
2023/08/24 09:32:38;;;;;;;3.65;2.40;;;;;;;;;;5083492;28;20729;-65
2023/08/24 09:35:06;;;;;;;4.18;2.45;;;;;;;;;;5077240;28;20444;-64
2023/08/24 09:37:34;;;;;;;3.25;2.53;;;;;;;;;;5090002;28;20427;-63
2023/08/24 09:40:07;;;;;;;3.65;2.40;;;;;;;;;;5086546;28;20849;-65
2023/08/24 09:42:39;;;;;;;3.87;2.80;;;;;;;;;;5090035;28;20932;-65
2023/08/24 09:45:07;;;;;;;7.30;6.60;;;;;;;;;;5090598;28;20437;-68
2023/08/24 09:47:36;;;;;;;4.90;4.45;;;;;;;;;;5086044;28;20486;-70
2023/08/24 09:50:03;;;;;;;3.90;3.60;;;;;;;;;;5088494;28;20420;-69
2023/08/24 09:52:34;;;;;;;4.03;3.40;;;;;;;;;;5085019;28;20426;-67
2023/08/24 09:55:05;;;;;;;3.10;2.80;;;;;;;;;;5083036;28;20446;-67
2023/08/24 09:57:33;;;;;;;3.63;2.65;;;;;;;;;;5085262;28;20428;-72
2023/08/24 10:00:00;;;;;;;4.85;2.55;;;;;;;;;;5087246;28;20446;-69
2023/08/24 10:02:29;;;;;;;3.20;2.40;;;;;;;;;;5080579;28;20942;-66
2023/08/24 10:04:58;;;;;;;3.72;2.47;;;;;;;;;;5084076;28;20440;-65
2023/08/24 10:07:26;;;;;;;3.00;2.40;;;;;;;;;;5086814;28;20420;-65
2023/08/24 10:09:55;;;;;;;2.75;2.55;;;;;;;;;;5086201;28;20704;-67
2023/08/24 10:12:26;;;;;;;3.03;2.70;;;;;;;;;;5098933;28;20932;-67
2023/08/24 10:14:55;;;;;;;2.72;2.50;;;;;;;;;;5084834;28;20780;-66
2023/08/24 10:17:23;;;;;;;5.30;2.50;;;;;;;;;;5088489;28;20421;-68
2023/08/24 10:19:52;;;;;;;2.83;2.40;;;;;;;;;;5091112;28;20502;-67
2023/08/24 10:22:20;;;;;;;2.63;2.40;;;;;;;;;;5086971;28;20441;-67
2023/08/24 10:24:48;;;;;;;3.08;2.58;;;;;;;;;;5081666;28;20876;-67
2023/08/24 10:27:15;;;;;;;3.45;2.67;;;;;;;;;;5088967;28;20430;-67
2023/08/24 10:29:42;;;;;;;3.33;2.60;;;;;;;;;;5088876;28;20429;-68
2023/08/24 10:32:10;;;;;;;3.80;2.40;;;;;;;;;;5087008;28;20457;-68
2023/08/24 10:34:37;;;;;;;3.67;2.40;;;;;;;;;;5086263;28;20427;-68
2023/08/24 10:37:11;;;;;;;3.78;2.40;;;;;;;;;;5088157;28;20434;-70
2023/08/24 10:39:45;;;;;;;3.60;1.90;;;;;;;;;;5082693;28;20430;-68
2023/08/24 10:42:12;;;;;;;2.70;1.98;;;;;;;;;;5078927;28;20494;-67
2023/08/24 10:44:40;;;;;;;4.10;2.30;;;;;;;;;;5089796;28;20417;-68
2023/08/24 10:47:07;;;;;;;3.83;2.40;;;;;;;;;;5085000;28;20480;-68
2023/08/24 10:49:34;;;;;;;3.63;1.90;;;;;;;;;;5080395;28;20513;-67
2023/08/24 10:52:16;;;;;;;3.50;2.00;;;;;;;;;;5083541;28;20430;-68
2023/08/24 10:54:47;;;;;;;2.20;1.83;;;;;;;;;;5089933;28;20417;-68
2023/08/24 10:57:19;;;;;;;2.85;1.77;;;;;;;;;;5083273;28;21024;-67
2023/08/24 10:59:46;;;;;;;2.78;1.83;;;;;;;;;;5085974;28;21150;-68
2023/08/24 11:02:20;;;;;;;3.67;2.15;;;;;;;;;;5082281;28;20426;-69
2023/08/24 11:05:02;;;;;;;3.00;2.03;;;;;;;;;;5081686;28;20398;-70
2023/08/24 11:07:29;;;;;;;4.20;2.00;;;;;;;;;;5085265;28;20425;-77
2023/08/24 11:09:57;;;;;;;2.80;2.00;;;;;;;;;;5081699;28;20802;-74
2023/08/24 11:12:25;;;;;;;3.00;2.28;;;;;;;;;;5083800;28;20422;-74
2023/08/24 11:14:54;;;;;;;3.28;2.25;;;;;;;;;;5080130;28;20472;-73
2023/08/24 11:17:22;;;;;;;3.00;2.20;;;;;;;;;;5087568;28;20426;-76
2023/08/24 11:19:50;;;;;;;4.57;2.22;;;;;;;;;;5089665;28;20551;-73
2023/08/24 11:22:18;;;;;;;2.38;2.00;;;;;;;;;;5088408;28;20406;-74
2023/08/24 11:24:45;;;;;;;2.83;2.03;;;;;;;;;;5081373;28;20795;-77
2023/08/24 11:27:14;;;;;;;3.40;2.20;;;;;;;;;;5084073;28;20413;-77
2023/08/24 11:29:41;;;;;;;2.70;2.40;;;;;;;;;;5085020;28;20458;-76
2023/08/24 11:32:08;;;;;;;2.75;2.28;;;;;;;;;;5089109;28;20684;-78
2023/08/24 11:34:37;;;;;;;2.58;2.33;;;;;;;;;;5084263;28;20437;-77
2023/08/24 11:37:04;;;;;;;3.30;2.30;;;;;;;;;;5082361;28;20548;-77
2023/08/24 11:39:32;;;;;;;2.50;2.30;;;;;;;;;;5085011;28;20435;-76
2023/08/24 11:42:00;;;;;;;3.58;2.60;;;;;;;;;;5081293;28;20430;-77
2023/08/24 11:44:28;;;;;;;4.18;2.70;;;;;;;;;;5088879;28;20495;-77
2023/08/24 11:46:57;;;;;;;3.30;2.85;;;;;;;;;;5086148;28;20426;-76
2023/08/24 11:49:25;;;;;;;4.28;2.60;;;;;;;;;;5076899;28;20489;-76
2023/08/24 11:51:52;;;;;;;4.20;2.60;;;;;;;;;;5082603;28;20425;-76
2023/08/24 11:54:20;;;;;;;4.40;2.60;;;;;;;;;;5087391;28;20908;-71
2023/08/24 11:56:48;;;;;;;3.22;2.80;;;;;;;;;;5082183;28;20453;-72
2023/08/24 11:59:16;;;;;;;3.20;2.60;;;;;;;;;;5084713;28;20437;-71
2023/08/24 12:01:44;;;;;;;4.63;2.60;;;;;;;;;;5075441;28;20429;-70
2023/08/24 12:04:12;;;;;;;4.65;2.75;;;;;;;;;;5084137;28;20811;-70
2023/08/24 12:06:39;;;;;;;3.20;2.60;;;;;;;;;;5093386;28;20451;-71
2023/08/24 12:09:07;;;;;;;3.00;2.70;;;;;;;;;;5085651;28;20425;-71
2023/08/24 12:11:37;;;;;;;3.67;2.80;;;;;;;;;;5093349;28;20440;-72
2023/08/24 12:14:04;;;;;;;4.25;3.00;;;;;;;;;;5084503;28;20777;-70
2023/08/24 12:16:32;;;;;;;4.65;3.10;;;;;;;;;;5081869;28;20430;-70
2023/08/24 12:19:03;;;;;;;4.05;2.90;;;;;;;;;;5083245;28;20425;-71
2023/08/24 12:21:30;;;;;;;3.58;3.08;;;;;;;;;;5079819;28;20433;-72
2023/08/24 12:23:58;;;;;;;3.80;2.60;;;;;;;;;;5078521;28;20683;-73
2023/08/24 12:26:25;;;;;;;3.90;2.67;;;;;;;;;;5084514;28;20416;-71
2023/08/24 12:28:52;;;;;;;4.03;2.53;;;;;;;;;;5083593;28;20433;-71
2023/08/24 12:31:20;;;;;;;3.93;2.80;;;;;;;;;;5086433;28;20919;-73
2023/08/24 12:33:58;;;;;;;4.57;2.75;;;;;;;;;;5082073;28;20428;-71
2023/08/24 12:36:27;;;;;;;3.58;2.75;;;;;;;;;;5095123;28;20490;-72
2023/08/24 12:38:54;;;;;;;3.80;2.60;;;;;;;;;;5086822;28;21163;-72
2023/08/24 12:41:21;;;;;;;6.13;3.20;;;;;;;;;;5080765;28;20432;-71
2023/08/24 12:43:48;;;;;;;4.15;3.00;;;;;;;;;;5079898;28;20428;-71
2023/08/24 12:46:15;;;;;;;5.25;3.25;;;;;;;;;;5079234;28;20803;-71
2023/08/24 12:48:42;;;;;;;7.35;3.33;;;;;;;;;;5085448;28;20433;-71
2023/08/24 12:51:10;;;;;;;7.20;4.10;;;;;;;;;;5085903;28;20437;-72
2023/08/24 12:53:38;;;;;;;6.30;3.90;;;;;;;;;;5081226;28;20427;-71
2023/08/24 12:56:05;;;;;;;5.70;3.90;;;;;;;;;;5088266;28;20414;-71
2023/08/24 12:58:32;;;;;;;5.07;3.60;;;;;;;;;;5076806;28;20604;-70
2023/08/24 13:01:00;;;;;;;5.35;4.00;;;;;;;;;;5086167;28;20467;-71
2023/08/24 13:03:28;;;;;;;7.68;4.60;;;;;;;;;;5077763;28;20407;-71
2023/08/24 13:05:55;;;;;;;8.35;4.40;;;;;;;;;;5086992;28;20434;-71
2023/08/24 13:08:22;;;;;;;5.82;3.70;;;;;;;;;;5082370;28;20437;-71
2023/08/24 13:10:51;;;;;;;6.80;4.00;;;;;;;;;;5084057;28;20421;-71
2023/08/24 13:13:20;;;;;;;6.53;3.78;;;;;;;;;;5095225;28;20404;-72
2023/08/24 13:15:47;;;;;;;6.15;3.63;;;;;;;;;;5080336;28;20444;-71
2023/08/24 13:18:14;;;;;;;4.70;3.35;;;;;;;;;;5084293;28;20916;-71
2023/08/24 13:20:42;;;;;;;5.57;3.17;;;;;;;;;;5088093;28;20405;-72
2023/08/24 13:23:09;;;;;;;5.72;4.00;;;;;;;;;;5087273;28;20494;-72
2023/08/24 13:25:36;;;;;;;4.47;3.55;;;;;;;;;;5090120;28;20430;-71
2023/08/24 13:28:05;;;;;;;4.75;3.50;;;;;;;;;;5078294;28;20429;-73
2023/08/24 13:30:32;;;;;;;4.63;2.97;;;;;;;;;;5086479;28;20472;-72
2023/08/24 13:32:59;;;;;;;3.85;3.15;;;;;;;;;;5090795;28;20416;-72
2023/08/24 13:35:26;;;;;;;4.97;3.20;;;;;;;;;;5087969;28;20951;-71
2023/08/24 13:37:53;;;;;;;4.53;3.10;;;;;;;;;;5083903;28;22017;-70
2023/08/24 13:40:21;;;;;;;5.00;3.00;;;;;;;;;;5086790;28;20894;-71
2023/08/24 13:42:48;;;;;;;4.55;2.97;;;;;;;;;;5090807;28;20414;-70
2023/08/24 13:45:16;;;;;;;4.60;2.80;;;;;;;;;;5085847;28;20426;-71
2023/08/24 13:47:44;;;;;;;4.57;2.60;;;;;;;;;;5082944;28;20989;-71
2023/08/24 13:50:11;;;;;;;4.53;2.60;;;;;;;;;;5090488;28;20454;-71
2023/08/24 13:52:38;;;;;;;3.67;2.60;;;;;;;;;;5090195;28;20920;-71
2023/08/24 13:55:06;;;;;;;3.72;2.75;;;;;;;;;;5089709;28;20906;-71
2023/08/24 13:57:33;;;;;;;4.88;2.58;;;;;;;;;;5090681;28;20779;-70
2023/08/24 14:00:01;;;;;;;4.32;2.85;;;;;;;;;;5090708;28;20788;-71
2023/08/24 14:02:29;;;;;;;3.67;2.70;;;;;;;;;;5089911;28;20430;-71
2023/08/24 14:04:56;;;;;;;3.90;2.70;;;;;;;;;;5091672;28;20780;-70
2023/08/24 14:07:23;;;;;;;3.15;2.50;;;;;;;;;;5090875;28;20957;-71
2023/08/24 14:09:50;;;;;;;4.60;2.90;;;;;;;;;;5091589;28;20780;-70
2023/08/24 14:12:17;;;;;;;3.50;2.55;;;;;;;;;;5098535;28;20489;-71
2023/08/24 14:14:44;;;;;;;3.70;2.50;;;;;;;;;;5091118;28;20422;-72
2023/08/24 14:17:12;;;;;;;3.92;2.63;;;;;;;;;;5098364;28;20593;-71
2023/08/24 14:19:40;;;;;;;4.28;3.05;;;;;;;;;;5090760;28;20421;-71
2023/08/24 14:22:07;;;;;;;3.80;2.88;;;;;;;;;;5085609;28;20435;-71
2023/08/24 14:24:34;;;;;;;4.73;2.93;;;;;;;;;;5091559;28;20422;-71
2023/08/24 14:27:01;;;;;;;3.00;2.70;;;;;;;;;;5084796;28;20903;-71
2023/08/24 14:29:29;;;;;;;3.53;2.50;;;;;;;;;;5090445;28;20417;-71
2023/08/24 14:31:56;;;;;;;3.83;2.70;;;;;;;;;;5088045;28;20430;-71
2023/08/24 14:34:23;;;;;;;4.15;2.50;;;;;;;;;;5085056;28;20405;-71
2023/08/24 14:36:51;;;;;;;4.25;2.70;;;;;;;;;;5091765;28;20409;-72
2023/08/24 14:39:18;;;;;;;3.60;2.80;;;;;;;;;;5085692;28;20988;-71
2023/08/24 14:41:45;;;;;;;3.45;2.70;;;;;;;;;;5081370;28;20781;-70
2023/08/24 14:44:12;;;;;;;5.80;3.10;;;;;;;;;;5090027;28;20429;-71
2023/08/24 14:46:39;;;;;;;5.65;3.40;;;;;;;;;;5090321;28;20417;-70